Time;durP1;ratioP1;P1;durP2;ratioP2;P2;SDS_P1;SDS_P2;PMS_P1;PMS_P2;Temp;Humidity;BMP_temperature;BMP_pressure;BME280_temperature;BME280_humidity;BME280_pressure;Samples;Min_cycle;Max_cycle;Signal;HPM_P1;HPM_P2
2022/06/14 00:03:05;;;;;;;0.20;0.20;;;16.30;89.10;;;;;;4971697;28;20110;-70
2022/06/14 00:05:31;;;;;;;0.00;0.00;;;16.20;89.40;;;;;;4971818;28;20050;-70
2022/06/14 00:07:57;;;;;;;0.00;0.00;;;16.20;89.40;;;;;;4970546;28;20046;-70
2022/06/14 00:10:23;;;;;;;0.00;0.00;;;16.20;89.30;;;;;;4970970;28;20599;-70
2022/06/14 00:12:49;;;;;;;0.10;0.10;;;16.10;89.70;;;;;;4970419;28;20078;-70
2022/06/14 00:15:15;;;;;;;0.00;0.00;;;16.10;89.90;;;;;;4971772;28;20026;-69
2022/06/14 00:17:41;;;;;;;0.63;0.63;;;16.10;90.00;;;;;;4972003;28;20497;-69
2022/06/14 00:20:08;;;;;;;0.10;0.10;;;16.10;90.00;;;;;;4971149;28;20031;-70
2022/06/14 00:22:34;;;;;;;0.00;0.00;;;16.10;90.10;;;;;;4971977;28;20038;-70
2022/06/14 00:25:00;;;;;;;0.50;0.50;;;16.10;90.20;;;;;;4970645;28;20093;-70
2022/06/14 00:27:26;;;;;;;0.00;0.00;;;16.00;90.30;;;;;;4972100;28;20027;-70
2022/06/14 00:29:51;;;;;;;0.08;0.08;;;16.00;90.30;;;;;;4970703;28;20061;-70
2022/06/14 00:32:17;;;;;;;0.25;0.10;;;15.90;90.50;;;;;;4971580;28;20038;-70
2022/06/14 00:34:43;;;;;;;1.95;1.08;;;15.90;90.50;;;;;;4971391;28;20031;-70
2022/06/14 00:37:18;;;;;;;0.40;0.40;;;15.80;90.70;;;;;;4971730;28;20038;-70
2022/06/14 00:39:45;;;;;;;0.03;0.03;;;15.80;90.80;;;;;;4969635;28;20045;-70
2022/06/14 00:42:22;;;;;;;0.10;0.10;;;15.80;90.90;;;;;;4970275;28;20037;-69
2022/06/14 00:45:26;;;;;;;0.08;0.08;;;15.80;90.90;;;;;;4971985;28;20050;-70
2022/06/14 00:47:58;;;;;;;0.52;0.52;;;15.70;91.20;;;;;;4960849;28;20051;-71
2022/06/14 00:51:01;;;;;;;0.20;0.20;;;15.80;91.30;;;;;;4969405;28;20046;-70
2022/06/14 00:54:07;;;;;;;19.85;0.75;;;15.80;91.20;;;;;;4954920;28;20394;-71
2022/06/14 00:57:08;;;;;;;0.10;0.10;;;15.80;91.30;;;;;;4968001;28;20045;-70
2022/06/14 00:59:51;;;;;;;0.08;0.08;;;15.80;91.40;;;;;;4970826;28;20034;-70
2022/06/14 01:02:19;;;;;;;0.00;0.00;;;15.70;91.70;;;;;;4970008;28;20027;-70
2022/06/14 01:04:46;;;;;;;0.20;0.17;;;15.60;91.80;;;;;;4969123;28;20039;-70
2022/06/14 01:07:35;;;;;;;0.00;0.00;;;15.60;92.00;;;;;;4964306;28;20042;-70
2022/06/14 01:10:28;;;;;;;0.52;0.52;;;15.40;92.30;;;;;;4966631;28;20599;-70
2022/06/14 01:12:58;;;;;;;0.57;0.35;;;15.30;92.60;;;;;;4952029;28;20035;-70
2022/06/14 01:15:29;;;;;;;0.00;0.00;;;15.30;92.80;;;;;;4957920;28;20055;-70
2022/06/14 01:18:05;;;;;;;0.10;0.10;;;15.30;92.90;;;;;;4974053;28;20141;-70
2022/06/14 01:20:31;;;;;;;0.63;0.20;;;15.40;92.80;;;;;;4973228;28;20077;-70
2022/06/14 01:22:58;;;;;;;0.22;0.22;;;15.30;93.00;;;;;;4974354;28;20034;-69
2022/06/14 01:25:28;;;;;;;0.22;0.20;;;15.20;93.10;;;;;;4974829;28;20033;-69
2022/06/14 01:27:55;;;;;;;0.00;0.00;;;15.20;93.20;;;;;;5005574;28;20137;-69
2022/06/14 01:30:31;;;;;;;0.00;0.00;;;15.20;93.50;;;;;;5004833;28;20034;-70
2022/06/14 01:33:27;;;;;;;0.00;0.00;;;15.10;93.90;;;;;;5004296;28;20503;-70
2022/06/14 01:36:05;;;;;;;0.00;0.00;;;15.00;93.90;;;;;;4974887;28;20031;-70
2022/06/14 01:38:31;;;;;;;0.00;0.00;;;15.10;94.10;;;;;;5003786;28;20541;-70
2022/06/14 01:41:06;;;;;;;4.57;1.38;;;15.00;94.40;;;;;;5003767;28;20034;-69
2022/06/14 01:44:01;;;;;;;0.00;0.00;;;15.00;94.40;;;;;;4974417;28;20082;-69
2022/06/14 01:46:40;;;;;;;0.38;0.38;;;15.10;94.70;;;;;;4974272;28;20035;-69
2022/06/14 01:52:04;;;;;;;0.32;0.30;;;15.00;95.20;;;;;;4972994;28;20035;-69
2022/06/14 01:54:32;;;;;;;0.20;0.20;;;14.90;95.40;;;;;;4972946;28;20027;-69
2022/06/14 01:57:42;;;;;;;1.25;1.15;;;14.80;95.70;;;;;;4973075;28;20031;-69
2022/06/14 02:00:23;;;;;;;0.10;0.10;;;14.80;95.80;;;;;;4950441;28;20447;-69
2022/06/14 02:06:38;;;;;;;0.20;0.20;;;14.70;96.50;;;;;;4948535;28;20039;-70
2022/06/14 02:09:11;;;;;;;1.98;0.73;;;14.60;97.00;;;;;;4973130;28;20046;-69
2022/06/14 02:11:37;;;;;;;0.10;0.10;;;14.40;97.60;;;;;;4972481;28;20045;-69
2022/06/14 02:14:32;;;;;;;2.05;0.60;;;14.40;98.10;;;;;;4973522;28;20034;-69
2022/06/14 02:17:15;;;;;;;0.00;0.00;;;14.30;98.30;;;;;;4953504;29;20035;-69
2022/06/14 02:19:51;;;;;;;0.10;0.10;;;14.10;99.60;;;;;;4952670;28;20487;-69
2022/06/14 02:22:27;;;;;;;0.32;0.22;;;14.00;99.90;;;;;;4952995;29;20027;-69
2022/06/14 02:25:27;;;;;;;0.40;0.40;;;14.00;99.90;;;;;;4953232;29;20061;-69
2022/06/14 02:28:07;;;;;;;0.88;0.60;;;14.00;99.90;;;;;;4953792;28;20086;-70
2022/06/14 02:30:43;;;;;;;0.00;0.00;;;13.90;99.90;;;;;;4951975;29;20042;-70
2022/06/14 02:33:34;;;;;;;0.00;0.00;;;13.90;99.90;;;;;;4937419;29;20027;-70
2022/06/14 02:36:28;;;;;;;0.00;0.00;;;13.60;99.90;;;;;;4953743;28;20035;-70
2022/06/14 02:39:02;;;;;;;2.15;0.45;;;13.50;99.90;;;;;;4953227;28;20038;-70
2022/06/14 02:41:33;;;;;;;3.03;0.38;;;13.40;99.90;;;;;;4952947;29;20031;-70
2022/06/14 02:44:20;;;;;;;0.00;0.00;;;13.40;99.90;;;;;;4952978;29;20110;-69
2022/06/14 02:47:02;;;;;;;0.00;0.00;;;13.40;99.90;;;;;;4954183;29;20039;-69
2022/06/14 02:49:45;;;;;;;0.00;0.00;;;13.50;99.90;;;;;;4952079;28;20027;-70
2022/06/14 02:52:33;;;;;;;0.10;0.10;;;13.50;99.90;;;;;;4952543;29;20062;-69
2022/06/14 02:55:17;;;;;;;0.22;0.22;;;13.40;99.90;;;;;;4953733;29;20031;-70
2022/06/14 02:57:57;;;;;;;0.00;0.00;;;13.30;99.90;;;;;;4952713;29;20042;-69
2022/06/14 03:00:52;;;;;;;0.40;0.32;;;13.30;99.90;;;;;;4951769;28;20035;-69
2022/06/14 03:03:28;;;;;;;0.30;0.28;;;13.30;99.90;;;;;;4957303;28;20039;-70
2022/06/14 03:06:08;;;;;;;0.08;0.08;;;13.30;99.90;;;;;;4967873;28;20038;-69
2022/06/14 03:09:09;;;;;;;0.10;0.10;;;13.30;99.90;;;;;;4968609;28;20395;-69
2022/06/14 03:12:02;;;;;;;0.03;0.03;;;13.20;99.90;;;;;;4972328;28;20042;-70
2022/06/14 03:14:48;;;;;;;0.20;0.20;;;13.20;99.90;;;;;;4972536;28;20578;-69
2022/06/14 03:17:39;;;;;;;0.03;0.03;;;13.40;99.90;;;;;;4970076;28;20031;-69
2022/06/14 03:20:19;;;;;;;;;;;13.50;99.90;;;;;;4971017;28;20448;-69
2022/06/14 03:23:16;;;;;;;0.17;0.17;;;13.60;99.90;;;;;;4972201;28;20412;-69
2022/06/14 03:26:28;;;;;;;0.45;0.45;;;13.70;99.90;;;;;;4972302;28;20027;-69
2022/06/14 03:29:18;;;;;;;0.60;0.55;;;13.80;99.90;;;;;;4963801;28;20491;-69
2022/06/14 03:31:56;;;;;;;0.13;0.13;;;13.90;99.90;;;;;;5000877;28;20049;-69
2022/06/14 03:34:32;;;;;;;0.00;0.00;;;14.00;99.90;;;;;;4972091;28;20031;-69
2022/06/14 03:36:58;;;;;;;0.10;0.10;;;13.90;99.90;;;;;;5002575;28;20023;-70
2022/06/14 03:39:31;;;;;;;0.88;0.88;;;13.90;99.90;;;;;;4970668;28;20383;-69
2022/06/14 03:41:58;;;;;;;0.13;0.13;;;13.90;99.90;;;;;;4996632;28;20039;-69
2022/06/14 03:44:27;;;;;;;0.80;0.73;;;14.00;99.90;;;;;;4971891;28;20034;-69
2022/06/14 03:47:27;;;;;;;1.33;0.80;;;13.90;99.90;;;;;;4970891;28;20045;-69
2022/06/14 03:50:13;;;;;;;0.30;0.30;;;13.90;99.90;;;;;;4969771;28;20034;-69
2022/06/14 03:53:13;;;;;;;0.20;0.20;;;13.80;99.90;;;;;;4970972;28;20046;-69
2022/06/14 03:55:55;;;;;;;0.00;0.00;;;13.80;99.90;;;;;;4970814;28;20034;-69
2022/06/14 03:58:39;;;;;;;0.00;0.00;;;13.70;99.90;;;;;;4971973;28;20419;-66
2022/06/14 04:01:23;;;;;;;0.25;0.25;;;13.80;99.90;;;;;;4971948;28;20031;-71
2022/06/14 04:04:44;;;;;;;0.47;0.47;;;13.80;99.90;;;;;;4969471;28;20977;-77
2022/06/14 04:07:42;;;;;;;0.00;0.00;;;13.90;99.90;;;;;;4950120;28;20529;-76
2022/06/14 04:10:35;;;;;;;0.65;0.43;;;13.90;99.90;;;;;;4969172;28;20042;-77
2022/06/14 04:13:42;;;;;;;0.10;0.10;;;14.00;99.90;;;;;;4990097;28;20034;-77
2022/06/14 04:16:35;;;;;;;0.00;0.00;;;14.00;99.90;;;;;;4976175;28;20038;-78
2022/06/14 04:19:29;;;;;;;0.30;0.30;;;13.80;99.90;;;;;;4969518;28;20085;-79
2022/06/14 04:22:23;;;;;;;1.92;0.77;;;13.90;99.90;;;;;;4970335;28;20133;-77
2022/06/14 04:25:26;;;;;;;0.00;0.00;;;13.80;99.90;;;;;;4970601;28;20026;-74
2022/06/14 04:28:28;;;;;;;0.20;0.20;;;13.80;99.90;;;;;;4970075;28;20050;-80
2022/06/14 04:31:29;;;;;;;0.00;0.00;;;13.70;99.90;;;;;;4969998;28;20035;-79
2022/06/14 04:34:18;;;;;;;0.20;0.20;;;13.70;99.90;;;;;;4971125;28;20035;-77
2022/06/14 04:37:05;;;;;;;0.00;0.00;;;13.70;99.90;;;;;;4951020;29;20614;-78
2022/06/14 04:39:41;;;;;;;0.13;0.13;;;13.70;99.90;;;;;;4950895;28;20554;-77
2022/06/14 04:42:20;;;;;;;0.00;0.00;;;13.80;99.90;;;;;;4951202;29;20162;-75
2022/06/14 04:44:51;;;;;;;0.25;0.25;;;13.70;99.90;;;;;;4951498;28;20038;-78
2022/06/14 04:47:31;;;;;;;0.30;0.30;;;13.70;99.90;;;;;;4951411;29;20032;-76
2022/06/14 04:50:14;;;;;;;4.30;0.73;;;13.70;99.90;;;;;;4952458;28;20031;-76
2022/06/14 04:52:47;;;;;;;2.38;1.15;;;13.90;99.90;;;;;;4923965;29;20682;-73
2022/06/14 04:55:20;;;;;;;0.10;0.10;;;14.00;99.90;;;;;;4954494;29;20019;-74
2022/06/14 04:57:59;;;;;;;0.00;0.00;;;14.10;99.90;;;;;;4954354;28;20034;-74
2022/06/14 05:00:35;;;;;;;0.10;0.10;;;14.10;99.90;;;;;;4953106;28;20614;-76
2022/06/14 05:03:29;;;;;;;3.83;1.85;;;13.90;99.90;;;;;;4956202;29;20043;-76
2022/06/14 05:06:17;;;;;;;7.88;0.80;;;14.00;99.90;;;;;;4971048;28;20035;-74
2022/06/14 05:08:53;;;;;;;1.15;0.55;;;14.10;99.90;;;;;;4974185;28;20030;-76
2022/06/14 05:11:26;;;;;;;0.10;0.10;;;14.20;99.90;;;;;;4973544;28;20177;-75
2022/06/14 05:14:22;;;;;;;0.00;0.00;;;14.30;99.90;;;;;;4973464;28;20031;-75
2022/06/14 05:17:12;;;;;;;0.00;0.00;;;14.40;99.90;;;;;;4974268;28;20368;-75
2022/06/14 05:19:45;;;;;;;0.95;0.95;;;14.60;99.90;;;;;;5003596;28;20081;-78
2022/06/14 05:22:26;;;;;;;0.52;0.20;;;14.60;99.90;;;;;;5004509;28;20027;-77
2022/06/14 05:24:51;;;;;;;0.43;0.43;;;14.50;99.90;;;;;;5004519;28;20089;-76
2022/06/14 05:27:30;;;;;;;0.05;0.05;;;14.50;99.90;;;;;;4974500;28;20034;-76
2022/06/14 05:30:24;;;;;;;0.00;0.00;;;14.80;99.90;;;;;;5003644;28;20125;-76
2022/06/14 05:33:04;;;;;;;0.00;0.00;;;14.70;99.90;;;;;;4974244;28;20621;-77
2022/06/14 05:35:47;;;;;;;0.20;0.20;;;14.60;99.90;;;;;;4986712;28;20026;-76
2022/06/14 05:38:49;;;;;;;0.70;0.70;;;14.70;99.90;;;;;;4993378;28;20051;-76
2022/06/14 05:41:37;;;;;;;0.00;0.00;;;14.70;99.90;;;;;;4993755;28;20034;-76
2022/06/14 05:44:24;;;;;;;0.40;0.20;;;14.80;99.90;;;;;;4993256;28;20034;-76
2022/06/14 05:46:57;;;;;;;0.28;0.28;;;14.90;99.90;;;;;;4993570;28;20680;-76
2022/06/14 05:49:28;;;;;;;0.20;0.20;;;14.80;99.90;;;;;;4991464;28;20030;-76
2022/06/14 05:52:16;;;;;;;0.00;0.00;;;15.00;99.90;;;;;;4992467;28;20030;-76
2022/06/14 05:55:07;;;;;;;0.73;0.38;;;15.00;99.90;;;;;;4993389;28;20037;-76
2022/06/14 05:57:54;;;;;;;0.00;0.00;;;15.20;99.90;;;;;;4993899;28;20105;-76
2022/06/14 06:00:55;;;;;;;0.20;0.20;;;15.20;99.90;;;;;;4994790;28;20034;-76
2022/06/14 06:03:27;;;;;;;0.67;0.67;;;15.50;99.90;;;;;;4970224;28;20455;-76
2022/06/14 06:06:18;;;;;;;0.57;0.47;;;15.70;99.90;;;;;;4989222;28;20398;-76
2022/06/14 06:08:54;;;;;;;0.20;0.10;;;15.70;99.90;;;;;;4992545;28;20027;-77
2022/06/14 06:11:28;;;;;;;0.08;0.08;;;15.80;99.90;;;;;;4991871;28;20042;-76
2022/06/14 06:14:12;;;;;;;0.47;0.45;;;15.80;99.90;;;;;;4993267;28;20049;-76
2022/06/14 06:20:13;;;;;;;0.03;0.03;;;16.00;99.90;;;;;;4991252;28;20030;-76
2022/06/14 06:22:53;;;;;;;0.10;0.10;;;16.10;99.90;;;;;;4993061;28;20062;-75
2022/06/14 06:25:32;;;;;;;0.00;0.00;;;16.20;99.90;;;;;;4993424;28;20030;-75
2022/06/14 06:28:24;;;;;;;0.20;0.20;;;16.10;99.90;;;;;;4991724;28;20085;-77
2022/06/14 06:30:54;;;;;;;1.85;0.55;;;16.20;99.90;;;;;;4973006;28;20030;-77
2022/06/14 06:33:23;;;;;;;0.00;0.00;;;16.20;99.90;;;;;;4972453;28;20285;-78
2022/06/14 06:36:14;;;;;;;0.43;0.40;;;16.40;99.90;;;;;;4981027;28;20042;-77
2022/06/14 06:39:04;;;;;;;0.00;0.00;;;16.50;99.90;;;;;;4955131;28;20095;-78
2022/06/14 06:41:55;;;;;;;7.68;2.15;;;16.60;99.90;;;;;;4982717;28;20034;-71
2022/06/14 06:44:57;;;;;;;0.17;0.17;;;16.70;99.90;;;;;;4988256;28;20074;-72
2022/06/14 06:47:44;;;;;;;1.50;1.20;;;16.80;99.70;;;;;;4991115;28;20042;-72
2022/06/14 06:50:22;;;;;;;0.15;0.15;;;17.00;99.50;;;;;;4984278;28;20134;-71
2022/06/14 06:53:16;;;;;;;0.85;0.63;;;17.00;98.40;;;;;;4989036;28;20170;-71
2022/06/14 06:56:00;;;;;;;1.25;0.30;;;17.00;99.20;;;;;;4967389;28;20059;-71
2022/06/14 06:58:34;;;;;;;0.20;0.20;;;17.10;99.50;;;;;;4989317;28;20431;-71
2022/06/14 07:01:25;;;;;;;0.10;0.10;;;17.10;99.90;;;;;;4991771;28;20101;-71
2022/06/14 07:04:20;;;;;;;0.10;0.10;;;17.30;99.00;;;;;;4990466;28;20030;-71
2022/06/14 07:07:05;;;;;;;0.17;0.15;;;17.40;98.30;;;;;;4969428;28;20031;-71
2022/06/14 07:09:50;;;;;;;0.25;0.10;;;17.50;98.10;;;;;;4980933;28;20042;-71
2022/06/14 07:12:36;;;;;;;0.10;0.10;;;17.60;98.00;;;;;;4971164;28;20031;-72
2022/06/14 07:15:12;;;;;;;0.08;0.08;;;17.60;97.70;;;;;;4971554;28;20027;-72
2022/06/14 07:18:05;;;;;;;0.00;0.00;;;17.70;97.60;;;;;;5001863;28;20113;-71
2022/06/14 07:20:54;;;;;;;0.00;0.00;;;17.90;97.00;;;;;;4989510;28;20030;-72
2022/06/14 07:23:31;;;;;;;0.20;0.13;;;18.00;96.50;;;;;;4972642;28;20045;-71
2022/06/14 07:26:12;;;;;;;0.35;0.35;;;18.10;96.30;;;;;;4971599;28;20027;-72
2022/06/14 07:29:23;;;;;;;0.17;0.17;;;18.10;95.90;;;;;;4969887;28;20037;-72
2022/06/14 07:32:03;;;;;;;29.50;2.90;;;18.10;96.00;;;;;;4970912;28;20038;-71
2022/06/14 07:34:31;;;;;;;0.15;0.15;;;18.10;95.50;;;;;;4975184;28;20022;-71
2022/06/14 07:38:03;;;;;;;0.10;0.10;;;18.30;95.60;;;;;;4990131;28;20061;-72
2022/06/14 07:40:49;;;;;;;0.50;0.50;;;18.50;94.40;;;;;;4913903;29;20038;-72
2022/06/14 07:43:32;;;;;;;0.00;0.00;;;18.60;94.20;;;;;;4916816;29;20118;-74
2022/06/14 07:46:06;;;;;;;3.65;1.08;;;18.60;93.40;;;;;;4930660;29;20051;-72
2022/06/14 07:48:52;;;;;;;0.00;0.00;;;18.70;93.40;;;;;;4912568;29;20106;-72
2022/06/14 07:51:40;;;;;;;0.00;0.00;;;18.80;93.70;;;;;;4896258;29;20048;-72
2022/06/14 07:54:25;;;;;;;0.13;0.10;;;18.80;93.60;;;;;;4898386;29;20044;-70
2022/06/14 07:57:11;;;;;;;0.17;0.17;;;19.00;93.50;;;;;;4904670;29;20094;-71
2022/06/14 08:03:25;;;;;;;0.00;0.00;;;19.10;92.90;;;;;;4913187;29;20047;-71
2022/06/14 08:05:53;;;;;;;3.00;1.98;;;19.40;91.90;;;;;;4902719;29;20161;-71
2022/06/14 08:08:28;;;;;;;0.70;0.68;;;19.30;91.70;;;;;;4902809;29;20042;-70
2022/06/14 08:11:05;;;;;;;0.25;0.25;;;19.30;92.40;;;;;;4932257;28;20055;-71
2022/06/14 08:13:40;;;;;;;0.20;0.20;;;19.50;91.50;;;;;;4964112;28;20432;-70
2022/06/14 08:16:09;;;;;;;0.05;0.05;;;19.70;90.70;;;;;;4972157;28;20081;-70
2022/06/14 08:18:47;;;;;;;0.08;0.08;;;20.00;90.20;;;;;;4978128;28;20053;-71
2022/06/14 08:21:40;;;;;;;0.45;0.45;;;20.30;89.00;;;;;;4972534;28;20414;-71
2022/06/14 08:24:21;;;;;;;0.00;0.00;;;20.40;88.00;;;;;;4974658;28;20058;-72
2022/06/14 08:27:05;;;;;;;0.65;0.47;;;20.50;87.40;;;;;;4977367;28;20118;-72
2022/06/14 08:29:53;;;;;;;0.10;0.10;;;20.50;86.80;;;;;;4994563;23;20544;-74
2022/06/14 08:32:32;;;;;;;0.00;0.00;;;20.60;86.80;;;;;;5023272;28;20103;-74
2022/06/14 08:35:26;;;;;;;2.35;0.35;;;20.60;86.30;;;;;;5023898;28;20022;-74
2022/06/14 08:38:14;;;;;;;0.00;0.00;;;20.50;85.20;;;;;;5021922;28;20163;-74
2022/06/14 08:41:34;;;;;;;0.05;0.05;;;20.60;83.80;;;;;;5025091;28;20045;-74
2022/06/14 08:44:30;;;;;;;0.00;0.00;;;20.60;81.70;;;;;;5060289;28;20036;-75
2022/06/14 08:47:29;;;;;;;0.00;0.00;;;20.80;83.20;;;;;;5028952;28;20052;-75
2022/06/14 08:50:29;;;;;;;0.00;0.00;;;21.00;82.80;;;;;;5028947;28;20065;-73
2022/06/14 08:53:14;;;;;;;0.00;0.00;;;21.10;82.00;;;;;;5039535;28;20025;-74
2022/06/14 08:56:05;;;;;;;0.00;0.00;;;21.10;82.50;;;;;;5028325;28;20030;-74
2022/06/14 08:59:27;;;;;;;0.10;0.10;;;21.30;82.30;;;;;;5029311;28;20099;-74
2022/06/14 09:02:23;;;;;;;0.00;0.00;;;21.50;79.80;;;;;;5030307;28;20036;-74
2022/06/14 09:05:31;;;;;;;0.10;0.10;;;21.70;80.50;;;;;;5042322;28;20128;-74
2022/06/14 09:08:05;;;;;;;0.15;0.15;;;21.50;78.50;;;;;;5036124;28;20497;-74
2022/06/14 09:10:59;;;;;;;0.00;0.00;;;21.50;79.70;;;;;;5045805;28;20040;-74
2022/06/14 09:14:02;;;;;;;0.10;0.10;;;21.40;78.00;;;;;;5038374;28;20111;-74
2022/06/14 09:16:39;;;;;;;0.10;0.10;;;21.40;78.10;;;;;;5034055;28;20025;-74
2022/06/14 09:19:17;;;;;;;0.17;0.17;;;21.40;77.70;;;;;;5033625;28;20030;-74
2022/06/14 09:22:30;;;;;;;0.30;0.20;;;21.70;77.70;;;;;;5029877;28;20034;-73
2022/06/14 09:25:11;;;;;;;0.05;0.00;;;21.80;76.90;;;;;;5035741;28;20067;-73
2022/06/14 09:27:50;;;;;;;;;;;21.80;76.80;;;;;;5031967;28;20108;-74
2022/06/14 09:30:38;;;;;;;0.03;0.03;;;21.80;76.70;;;;;;5026978;28;19917;-73
2022/06/14 09:33:30;;;;;;;0.28;0.20;;;22.00;77.30;;;;;;5040668;28;20044;-75
2022/06/14 09:36:14;;;;;;;0.55;0.43;;;22.30;77.00;;;;;;5038128;28;20025;-75
2022/06/14 09:39:07;;;;;;;0.88;0.63;;;22.20;75.80;;;;;;5039901;28;20519;-73
2022/06/14 09:42:10;;;;;;;0.32;0.10;;;22.50;75.00;;;;;;5038558;28;20025;-73
2022/06/14 09:44:52;;;;;;;0.03;0.00;;;22.60;75.00;;;;;;5041492;28;20076;-73
2022/06/14 09:47:58;;;;;;;0.00;0.00;;;22.70;74.90;;;;;;5039197;28;20499;-73
2022/06/14 09:51:13;;;;;;;0.10;0.10;;;22.70;74.80;;;;;;5050173;28;20041;-73
2022/06/14 09:54:16;;;;;;;1.25;1.08;;;22.80;74.80;;;;;;5040699;28;20442;-74
2022/06/14 09:57:13;;;;;;;2.28;0.93;;;23.10;74.20;;;;;;5042176;28;20028;-75
2022/06/14 10:00:00;;;;;;;0.00;0.00;;;23.30;73.60;;;;;;5047255;28;20037;-75
2022/06/14 10:03:15;;;;;;;0.03;0.03;;;23.30;74.40;;;;;;5038988;28;20041;-75
2022/06/14 10:06:08;;;;;;;0.35;0.30;;;23.50;73.40;;;;;;5031674;28;20045;-78
2022/06/14 10:08:43;;;;;;;0.43;0.38;;;23.80;72.90;;;;;;5040564;28;20052;-77
2022/06/14 10:11:49;;;;;;;0.00;0.00;;;23.80;71.60;;;;;;5049570;28;20036;-77
2022/06/14 10:14:49;;;;;;;0.25;0.25;;;23.60;72.00;;;;;;5039075;28;20167;-74
2022/06/14 10:17:46;;;;;;;34.88;1.75;;;23.80;72.60;;;;;;5036848;28;20033;-74
2022/06/14 10:20:32;;;;;;;0.20;0.20;;;24.00;71.20;;;;;;5050090;28;20044;-75
2022/06/14 10:23:51;;;;;;;0.90;0.70;;;24.00;71.20;;;;;;5038154;28;20022;-82
2022/06/14 10:29:33;;;;;;;1.08;0.25;;;24.10;70.10;;;;;;5045402;28;20105;-75
2022/06/14 10:32:24;;;;;;;0.00;0.00;;;24.00;69.60;;;;;;5040843;28;20101;-80
2022/06/14 10:35:05;;;;;;;0.10;0.10;;;24.00;70.00;;;;;;5043482;28;20279;-72
2022/06/14 10:38:11;;;;;;;0.00;0.00;;;24.00;69.10;;;;;;5036035;28;20025;-80
2022/06/14 10:40:52;;;;;;;0.20;0.20;;;24.40;69.90;;;;;;5030055;28;20118;-79
2022/06/14 10:43:54;;;;;;;0.00;0.00;;;24.40;68.70;;;;;;5022812;28;20034;-77
2022/06/14 10:46:27;;;;;;;0.50;0.50;;;24.50;66.90;;;;;;5033409;28;20401;-78
2022/06/14 10:49:31;;;;;;;0.00;0.00;;;24.50;65.90;;;;;;5041328;28;20033;-76
2022/06/14 10:52:25;;;;;;;1.95;0.10;;;24.40;65.40;;;;;;5042543;28;20065;-75
2022/06/14 10:55:31;;;;;;;0.88;0.60;;;24.80;66.70;;;;;;5031545;28;20065;-81
2022/06/14 10:58:15;;;;;;;0.00;0.00;;;25.30;67.50;;;;;;5049830;28;20029;-75
2022/06/14 11:01:05;;;;;;;1.10;0.52;;;25.30;62.50;;;;;;5034775;28;20394;-75
2022/06/14 11:04:14;;;;;;;0.00;0.00;;;25.40;63.10;;;;;;5029068;28;20033;-75
2022/06/14 11:07:25;;;;;;;0.00;0.00;;;25.40;60.70;;;;;;5037909;28;20040;-75
2022/06/14 11:10:12;;;;;;;0.15;0.10;;;25.10;60.50;;;;;;5036375;28;20025;-75
2022/06/14 11:13:32;;;;;;;0.00;0.00;;;25.40;59.50;;;;;;5039659;28;20029;-75
2022/06/14 11:16:16;;;;;;;0.20;0.17;;;25.40;61.00;;;;;;5027632;28;20108;-75
2022/06/14 11:22:22;;;;;;;0.10;0.00;;;25.80;58.80;;;;;;5039479;28;20132;-75
2022/06/14 11:24:51;;;;;;;0.13;0.10;;;25.80;57.30;;;;;;5058441;28;20388;-75
2022/06/14 11:27:44;;;;;;;0.38;0.25;;;25.40;56.90;;;;;;5042384;28;20083;-75
2022/06/14 11:30:36;;;;;;;0.10;0.10;;;25.50;58.20;;;;;;5047643;28;20108;-75
2022/06/14 11:33:41;;;;;;;0.20;0.20;;;25.70;58.20;;;;;;5036687;28;20029;-75
2022/06/14 11:36:54;;;;;;;0.00;0.00;;;25.70;59.70;;;;;;5031216;28;20025;-75
2022/06/14 11:39:50;;;;;;;1.20;0.65;;;25.60;58.60;;;;;;5034709;28;20444;-75
2022/06/14 11:42:31;;;;;;;2.00;0.65;;;26.00;59.40;;;;;;5044884;28;20036;-75
2022/06/14 11:45:15;;;;;;;1.00;0.73;;;25.70;59.00;;;;;;5046180;28;20029;-76
2022/06/14 11:48:13;;;;;;;0.00;0.00;;;25.90;59.80;;;;;;5038597;28;20040;-75
2022/06/14 11:51:10;;;;;;;0.00;0.00;;;25.90;57.90;;;;;;5046987;28;20041;-76
2022/06/14 11:53:47;;;;;;;1.45;0.63;;;26.40;57.90;;;;;;5032510;28;20037;-76
2022/06/14 11:56:43;;;;;;;0.17;0.17;;;26.50;57.80;;;;;;5029710;28;20060;-76
2022/06/14 11:59:47;;;;;;;0.00;0.00;;;26.10;59.10;;;;;;5013434;28;20171;-76
2022/06/14 12:02:51;;;;;;;0.00;0.00;;;26.30;58.80;;;;;;5032643;28;20037;-76
2022/06/14 12:05:17;;;;;;;0.30;0.22;;;26.40;58.80;;;;;;5028656;28;20025;-76
2022/06/14 12:08:06;;;;;;;0.05;0.05;;;27.00;57.00;;;;;;5033985;28;20523;-76
2022/06/14 12:10:47;;;;;;;0.05;0.00;;;27.30;55.70;;;;;;5027844;28;20025;-76
2022/06/14 12:13:53;;;;;;;0.30;0.20;;;26.70;56.00;;;;;;5038936;28;20061;-76
2022/06/14 12:16:51;;;;;;;0.20;0.20;;;27.10;55.10;;;;;;4994634;28;20193;-75
2022/06/14 12:19:26;;;;;;;0.00;0.00;;;27.40;55.50;;;;;;5023061;28;20037;-75
2022/06/14 12:22:26;;;;;;;0.00;0.00;;;27.40;54.40;;;;;;5029089;28;20037;-75
2022/06/14 12:27:43;;;;;;;0.05;0.05;;;27.30;55.10;;;;;;5043911;28;20079;-75
2022/06/14 12:30:13;;;;;;;0.20;0.20;;;27.80;54.30;;;;;;5027588;28;20033;-75
2022/06/14 12:32:51;;;;;;;2.63;0.55;;;27.90;52.80;;;;;;5034403;28;20029;-75
2022/06/14 12:35:32;;;;;;;0.47;0.47;;;28.20;54.10;;;;;;5028295;28;20033;-76
2022/06/14 12:38:02;;;;;;;0.98;0.98;;;27.40;54.60;;;;;;5041195;28;20048;-76
2022/06/14 12:40:50;;;;;;;0.00;0.00;;;27.50;54.40;;;;;;5039877;28;20033;-76
2022/06/14 12:43:26;;;;;;;0.00;0.00;;;28.10;54.50;;;;;;5008649;28;20029;-75
2022/06/14 12:45:58;;;;;;;0.57;0.52;;;28.60;54.40;;;;;;5031854;28;20032;-76
2022/06/14 12:48:59;;;;;;;0.85;0.75;;;28.80;53.20;;;;;;5036605;28;20543;-76
2022/06/14 12:51:38;;;;;;;1.98;0.90;;;29.20;53.20;;;;;;5033069;28;20033;-76
2022/06/14 12:54:23;;;;;;;0.30;0.30;;;29.70;53.40;;;;;;5031442;28;20033;-76
2022/06/14 12:56:56;;;;;;;1.75;1.45;;;29.30;52.40;;;;;;5034125;28;20071;-76
2022/06/14 12:59:58;;;;;;;0.10;0.10;;;29.20;50.60;;;;;;5039335;28;20494;-76
2022/06/14 13:02:48;;;;;;;0.43;0.32;;;29.40;52.20;;;;;;5039870;28;20033;-76
2022/06/14 13:05:20;;;;;;;0.30;0.20;;;29.20;52.00;;;;;;5028007;28;20042;-75
2022/06/14 13:08:03;;;;;;;1.35;1.08;;;28.10;52.50;;;;;;5011908;28;20125;-75
2022/06/14 13:10:37;;;;;;;1.00;0.95;;;28.60;53.60;;;;;;5025676;28;20040;-75
2022/06/14 13:13:36;;;;;;;0.32;0.32;;;29.00;53.20;;;;;;5046918;28;20040;-75
2022/06/14 13:16:09;;;;;;;0.70;0.30;;;28.60;54.00;;;;;;5043665;28;20026;-76
2022/06/14 13:19:07;;;;;;;0.00;0.00;;;29.10;52.90;;;;;;5039725;28;20029;-74
2022/06/14 13:21:54;;;;;;;0.00;0.00;;;29.20;51.70;;;;;;5038971;28;20477;-75
2022/06/14 13:25:03;;;;;;;0.25;0.22;;;29.90;53.10;;;;;;5037792;28;20041;-75
2022/06/14 13:28:02;;;;;;;0.52;0.40;;;29.70;53.30;;;;;;5042375;28;20033;-75
2022/06/14 13:31:03;;;;;;;0.47;0.47;;;30.30;52.30;;;;;;5036484;28;20044;-76
2022/06/14 13:33:46;;;;;;;0.50;0.50;;;30.50;51.30;;;;;;5035162;28;20029;-75
2022/06/14 13:36:56;;;;;;;0.00;0.00;;;30.90;51.50;;;;;;5048508;28;20108;-75
2022/06/14 13:39:42;;;;;;;0.00;0.00;;;31.50;50.60;;;;;;5032112;28;20385;-75
2022/06/14 13:42:31;;;;;;;0.13;0.13;;;30.50;51.80;;;;;;5039626;28;20112;-75
2022/06/14 13:45:04;;;;;;;0.98;0.52;;;30.30;52.50;;;;;;5050581;28;20029;-75
2022/06/14 13:48:08;;;;;;;0.40;0.15;;;30.60;53.50;;;;;;5040431;28;20083;-75
2022/06/14 13:51:24;;;;;;;0.00;0.00;;;30.10;52.70;;;;;;5030764;28;20057;-75
2022/06/14 13:54:07;;;;;;;2.17;0.63;;;31.60;52.30;;;;;;5044262;28;20052;-76
2022/06/14 13:57:19;;;;;;;7.57;0.40;;;30.50;51.60;;;;;;5046561;28;20032;-75
2022/06/14 13:59:49;;;;;;;0.10;0.03;;;31.60;51.30;;;;;;5045717;28;20070;-75
2022/06/14 14:02:56;;;;;;;0.75;0.47;;;30.80;50.90;;;;;;5038020;28;20492;-75
2022/06/14 14:05:37;;;;;;;0.10;0.10;;;31.50;52.00;;;;;;5044787;28;20388;-75
2022/06/14 14:08:18;;;;;;;0.95;0.32;;;30.30;52.90;;;;;;5038315;28;20029;-75
2022/06/14 14:11:18;;;;;;;0.55;0.28;;;31.40;52.80;;;;;;5050409;28;20037;-76
2022/06/14 14:13:58;;;;;;;0.10;0.10;;;33.50;50.20;;;;;;5042230;28;20082;-76
2022/06/14 14:17:05;;;;;;;;;;;31.80;51.60;;;;;;5041081;28;20109;-75
2022/06/14 14:20:21;;;;;;;0.25;0.22;;;30.90;52.90;;;;;;5045767;28;19943;-75
2022/06/14 14:23:13;;;;;;;0.30;0.28;;;31.40;53.40;;;;;;5007705;28;20489;-76
2022/06/14 14:26:02;;;;;;;0.50;0.35;;;31.00;52.20;;;;;;5030741;28;20079;-76
2022/06/14 14:28:43;;;;;;;0.30;0.30;;;31.20;52.80;;;;;;5023322;28;20021;-75
2022/06/14 14:31:25;;;;;;;0.30;0.30;;;32.10;51.80;;;;;;5017410;23;20050;-71
2022/06/14 14:34:16;;;;;;;5.93;0.35;;;30.20;52.60;;;;;;5003303;28;20137;-72
2022/06/14 14:37:03;;;;;;;4.57;1.45;;;30.50;53.40;;;;;;5012954;28;20018;-72
2022/06/14 14:39:31;;;;;;;1.08;0.70;;;31.80;51.50;;;;;;4992566;28;20070;-72
2022/06/14 14:42:18;;;;;;;3.40;1.55;;;32.30;52.40;;;;;;4998587;28;20299;-72
2022/06/14 14:45:05;;;;;;;0.00;0.00;;;30.70;52.10;;;;;;4991699;28;20061;-72
2022/06/14 14:47:58;;;;;;;0.70;0.63;;;30.80;53.20;;;;;;5014862;28;20053;-72
2022/06/14 14:50:44;;;;;;;0.10;0.10;;;31.00;54.00;;;;;;5003492;28;20461;-73